Latest Weather Observations for Warwick

IDQ60901

Issued at 7:31 pm EST Saturday 2 July 2016 (issued every 10 minutes, with the page automatically refreshed every 10 minutes)

About weather observations | Map of Brisbane area stations | Latest observations for Brisbane area | Other Formats
Station Details ID: 041525 Name: WARWICK Lat: -28.21 Lon: 152.10 Height: 475.4 m
Data from the previous 72 hours. | See also: Recent months at Warwick
Date/Time
EST
Temp
°C
App
Temp
°C
Dew
Point
°C
Rel
Hum
%
Delta-T
°C
Wind Press
QNH
hPa
Press
MSL
hPa
Rain since
9am
mm
Dir  Spd
km/h
Gust
km/h
Spd
kts
Gust
kts
02/07:30pm 10.9 7.3 2.8 57 3.6 WNW 11 17 6 9 1024.9 1025.1 0.0
02/07:00pm 10.8 7.6 3.2 59 3.4 WNW 9 13 5 7 1024.6 1024.8 0.0
02/06:30pm 11.4 7.4 2.9 56 3.8 WNW 13 17 7 9 1024.4 1024.5 0.0
02/06:00pm 12.2 8.4 2.0 49 4.5 WNW 11 15 6 8 1024.0 1024.1 0.0
02/05:30pm 13.0 9.0 0.4 42 5.4 WNW 11 15 6 8 1023.7 1023.9 0.0
02/05:00pm 13.9 9.4 -0.2 38 6.0 WNW 13 17 7 9 1023.3 1023.5 0.0
02/04:30pm 16.0 11.9 -0.1 33 7.0 NW 11 17 6 9 1023.2 1023.4 0.0
02/04:00pm 16.7 13.0 0.1 32 7.3 NW 9 11 5 6 1023.1 1023.3 0.0
02/03:30pm 17.0 13.3 -0.1 31 7.5 NW 9 13 5 7 1023.0 1023.2 0.0
02/03:00pm 17.0 12.5 -3.1 25 8.3 WNW 11 15 6 8 1023.0 1023.2 0.0
02/02:30pm 17.1 13.1 -2.5 26 8.2 WNW 9 17 5 9 1022.9 1023.1 0.0
02/02:00pm 16.9 13.4 -1.7 28 7.9 WNW 7 13 4 7 1022.9 1023.1 0.0
02/01:30pm 16.3 13.9 -0.2 32 7.2 NNW 2 7 1 4 1022.9 1023.1 0.0
02/01:00pm 15.6 12.9 0.6 36 6.6 W 4 11 2 6 1023.1 1023.3 0.0
02/12:30pm 14.5 12.4 1.7 42 5.7 N 2 9 1 5 1023.4 1023.6 0.0
02/12:00pm 14.3 12.8 2.9 46 5.2 CALM 0 6 0 3 1023.8 1024.0 0.0
02/11:30am 12.3 9.5 3.0 53 4.2 NNE 7 9 4 5 1024.3 1024.4 0.0
02/11:00am 10.7 9.2 2.8 58 3.5 CALM 0 0 0 0 1024.9 1025.1 0.0
02/10:30am 9.3 7.7 2.4 62 3.0 CALM 0 0 0 0 1025.2 1025.4 0.0
02/10:00am 7.8 6.2 2.4 68 2.3 CALM 0 0 0 0 1025.3 1025.5 0.0
02/09:30am 7.5 5.8 1.8 67 2.4 CALM 0 0 0 0 1025.4 1025.6 0.0
02/09:00am 5.5 3.7 1.0 73 1.8 CALM 0 7 0 4 1025.4 1025.6 0.0
02/08:30am 3.7 1.8 0.6 80 1.2 CALM 0 0 0 0 1025.4 1025.6 0.0
02/08:00am 1.4 -0.5 0.3 92 0.4 CALM 0 0 0 0 1025.0 1025.2 0.0
02/07:30am 0.8 -1.1 0.3 96 0.2 CALM 0 0 0 0 1024.7 1024.9 0.0
02/07:00am 0.1 - - - - CALM 0 0 0 0 1024.3 1024.4 0.0
02/06:30am -1.0 - - - - WSW 9 9 5 5 1023.8 1024.0 0.0
02/06:00am -1.5 - - - - CALM 0 0 0 0 1023.6 1023.8 0.0
02/05:30am -0.5 - - - - CALM 0 0 0 0 1023.1 1023.3 0.0
02/05:00am -0.1 - - - - CALM 0 0 0 0 1022.8 1023.0 0.0
02/04:30am -0.1 - - - - CALM 0 0 0 0 1022.6 1022.7 0.0
02/04:00am 0.4 -2.7 0.1 98 0.1 E 6 9 3 5 1022.6 1022.7 0.0
02/03:30am 1.0 -1.0 0.2 94 0.3 CALM 0 2 0 1 1022.6 1022.7 0.0
02/03:00am 0.7 -1.6 0.7 100 0.0 ENE 2 7 1 4 1022.7 1022.9 0.0
02/02:30am 3.3 1.2 1.8 90 0.6 NW 2 6 1 3 1022.6 1022.7 0.0
02/02:00am 2.6 0.9 1.8 94 0.3 CALM 0 0 0 0 1022.7 1022.9 0.0
02/01:30am 2.4 -0.4 1.9 96 0.2 SW 6 11 3 6 1022.9 1023.1 0.0
02/01:00am 2.5 0.4 1.7 94 0.3 NNE 2 9 1 5 1022.8 1023.0 0.0
02/12:30am 3.8 0.9 2.6 92 0.5 WSW 7 13 4 7 1022.6 1022.7 0.0
02/12:00am 3.3 0.7 3.1 99 0.1 ENE 6 13 3 7 1022.6 1022.7 0.0
 
Date/Time
EST
Temp
°C
App
Temp
°C
Dew
Point
°C
Rel
Hum
%
Delta-T
°C
Wind Press
QNH
hPa
Press
MSL
hPa
Rain since
9am
mm
Dir  Spd
km/h
Gust
km/h
Spd
kts
Gust
kts
01/11:30pm 6.0 3.3 2.9 80 1.3 WNW 6 11 3 6 1022.4 1022.5 0.0
01/11:00pm 6.4 3.9 3.6 82 1.2 NW 6 9 3 5 1022.5 1022.6 0.0
01/10:30pm 7.2 4.1 3.5 77 1.6 WNW 9 11 5 6 1022.7 1022.9 0.0
01/10:00pm 8.7 5.5 3.2 68 2.4 W 9 15 5 8 1022.6 1022.7 0.0
01/09:30pm 8.6 5.5 3.6 71 2.2 WNW 9 11 5 6 1022.6 1022.7 0.0
01/09:00pm 8.0 5.5 3.7 74 1.9 W 6 9 3 5 1022.5 1022.6 0.0
01/08:30pm 8.4 5.5 4.4 76 1.8 WSW 9 15 5 8 1022.3 1022.4 0.0
01/08:00pm 10.2 7.6 4.0 65 2.8 W 7 17 4 9 1022.2 1022.3 0.0
01/07:30pm 10.2 7.5 3.5 63 3.0 WNW 7 15 4 8 1021.8 1021.9 0.0
01/07:00pm 10.8 7.2 3.2 59 3.4 W 11 17 6 9 1021.3 1021.5 0.0
01/06:30pm 10.7 6.8 3.3 60 3.3 W 13 19 7 10 1020.8 1020.9 0.0
01/06:00pm 11.2 6.5 2.9 56 3.7 WSW 17 20 9 11 1020.2 1020.3 0.0
01/05:30pm 12.6 6.7 1.7 47 4.8 WSW 22 30 12 16 1019.8 1019.9 0.0
01/05:00pm 12.7 9.5 4.9 59 3.7 W 11 20 6 11 1019.3 1019.5 0.0
01/04:30pm 14.5 9.5 3.5 47 5.1 WSW 19 30 10 16 1019.2 1019.4 0.0
01/04:00pm 15.3 9.9 2.7 42 5.8 WSW 20 33 11 18 1018.8 1018.9 0.0
01/03:30pm 16.0 10.8 3.4 43 5.9 WSW 20 32 11 17 1018.8 1018.9 0.0
01/03:00pm 16.2 10.2 3.5 42 6.0 WSW 24 43 13 23 1018.7 1018.8 0.0
01/02:30pm 16.1 10.1 3.6 43 5.9 WSW 24 35 13 19 1018.7 1018.8 0.0
01/02:00pm 16.2 9.5 3.5 42 6.0 WSW 28 43 15 23 1018.7 1018.8 0.0
01/01:30pm 16.6 9.8 3.2 40 6.3 WSW 28 43 15 23 1018.5 1018.6 0.0
01/01:00pm 16.6 11.4 3.8 42 6.1 WSW 20 32 11 17 1018.7 1018.8 0.0
01/12:30pm 16.0 9.8 2.3 39 6.3 W 24 35 13 19 1018.9 1019.0 0.0
01/12:00pm 15.6 10.2 2.5 41 6.0 W 20 33 11 18 1019.2 1019.4 0.0
01/11:30am 15.6 10.2 2.2 40 6.1 WSW 20 33 11 18 1019.6 1019.7 0.0
01/11:00am 15.1 9.3 2.1 41 5.9 WSW 22 35 12 19 1020.1 1020.2 0.0
01/10:30am 14.7 9.4 2.1 42 5.7 WSW 19 28 10 15 1020.5 1020.6 0.0
01/10:00am 13.5 9.2 3.5 51 4.6 W 15 22 8 12 1020.7 1020.8 0.0
01/09:30am 12.7 8.2 2.4 49 4.6 WNW 15 24 8 13 1020.8 1020.7 0.0
01/09:00am 9.7 8.3 5.4 74 2.0 SW 2 7 1 4 1020.8 1020.7 0.0
01/08:30am 5.8 4.6 4.4 91 0.6 CALM 0 0 0 0 1020.7 1020.6 0.0
01/08:00am 3.7 1.8 3.0 95 0.3 WSW 2 7 1 4 1020.7 1020.6 0.0
01/07:30am 1.7 0.0 1.7 100 0.0 CALM 0 0 0 0 1020.5 1020.4 0.0
01/07:00am 2.9 -0.4 2.4 96 0.2 ENE 9 11 5 6 1020.2 1020.0 0.0
01/06:30am 2.3 0.6 2.1 99 0.1 CALM 0 0 0 0 1020.1 1019.9 0.0
01/06:00am 3.1 1.6 3.1 100 0.0 CALM 0 0 0 0 1019.9 1019.7 0.0
01/05:30am 2.9 1.4 2.9 100 0.0 CALM 0 0 0 0 1019.7 1019.5 0.0
01/05:00am 3.2 1.7 3.0 99 0.1 CALM 0 0 0 0 1019.3 1019.2 0.0
01/04:30am 3.2 1.3 2.7 96 0.2 E 2 9 1 5 1019.3 1019.2 0.0
01/04:00am 4.1 2.7 3.4 95 0.3 CALM 0 0 0 0 1019.2 1019.1 0.0
01/03:30am 5.6 4.1 4.9 95 0.3 NE 2 7 1 4 1019.2 1019.1 0.0
01/03:00am 5.6 3.3 4.7 94 0.4 N 6 9 3 5 1019.2 1019.1 0.0
01/02:30am 5.0 3.8 4.5 97 0.2 CALM 0 6 0 3 1019.5 1019.3 0.0
01/02:00am 4.3 3.0 4.1 99 0.1 CALM 0 7 0 4 1019.1 1019.0 0.0
01/01:30am 5.3 4.2 5.1 99 0.1 CALM 0 0 0 0 1019.2 1019.1 0.0
01/01:00am 6.7 5.7 5.8 94 0.4 CALM 0 0 0 0 1019.3 1019.2 0.0
01/12:30am 7.1 6.2 6.0 93 0.5 CALM 0 6 0 3 1019.7 1019.5 0.0
01/12:00am 7.0 6.1 5.9 93 0.5 CALM 0 0 0 0 1019.7 1019.5 0.0
 
Date/Time
EST
Temp
°C
App
Temp
°C
Dew
Point
°C
Rel
Hum
%
Delta-T
°C
Wind Press
QNH
hPa
Press
MSL
hPa
Rain since
9am
mm
Dir  Spd
km/h
Gust
km/h
Spd
kts
Gust
kts
30/11:30pm 7.5 6.2 5.8 89 0.8 NE 2 7 1 4 1019.8 1019.6 0.0
30/11:00pm 11.4 8.8 6.2 70 2.5 NNW 9 13 5 7 1020.1 1019.9 0.0
30/10:30pm 11.0 8.2 7.1 77 1.9 NNW 11 15 6 8 1020.0 1019.8 0.0
30/10:00pm 11.1 7.6 7.2 77 1.9 N 15 15 8 8 1020.0 1019.8 0.0
30/09:30pm 12.1 9.5 7.7 74 2.2 NNW 11 15 6 8 1020.3 1020.1 0.0
30/09:00pm 11.8 8.9 8.2 78 1.8 N 13 15 7 8 1020.3 1020.1 0.0
30/08:30pm 12.4 8.8 8.5 77 2.0 N 17 20 9 11 1020.6 1020.5 0.0
30/08:00pm 13.4 10.5 8.1 70 2.7 N 13 17 7 9 1020.6 1020.5 0.0
30/07:30pm 13.6 10.2 6.0 60 3.7 N 13 17 7 9 1020.4 1020.2 0.0
30/07:00pm 14.2 10.7 5.3 55 4.3 N 13 19 7 10 1020.6 1020.5 0.0
30/06:30pm 14.0 10.5 5.5 56 4.1 N 13 17 7 9 1020.5 1020.4 0.0
30/06:00pm 13.8 11.5 5.8 58 3.9 WNW 7 11 4 6 1020.0 1019.8 0.0
30/05:30pm 13.5 11.3 6.1 61 3.6 WNW 7 9 4 5 1019.8 1019.6 0.0
30/05:00pm 14.8 12.6 6.0 55 4.3 W 7 11 4 6 1019.7 1019.5 0.0
30/04:30pm 16.7 13.0 4.2 43 6.0 WNW 13 19 7 10 1019.3 1019.2 0.0
30/04:00pm 17.5 13.4 4.3 41 6.4 WNW 15 22 8 12 1019.5 1019.3 0.0
30/03:30pm 17.9 13.7 4.0 39 6.7 NW 15 22 8 12 1019.6 1019.4 0.0
30/03:00pm 18.2 13.6 3.9 38 6.9 WNW 17 26 9 14 1019.8 1019.6 0.0
30/02:30pm 18.4 13.7 5.3 42 6.5 WSW 19 32 10 17 1020.0 1019.8 0.0
30/02:00pm 17.8 14.3 5.5 44 6.1 NW 13 19 7 10 1020.3 1020.1 0.0
30/01:30pm 17.3 14.0 6.4 48 5.5 NW 13 24 7 13 1020.7 1020.6 0.0
30/01:00pm 17.2 14.4 7.0 51 5.2 NW 11 19 6 10 1021.3 1021.2 0.0
30/12:30pm 17.0 15.0 7.2 52 5.0 WNW 7 11 4 6 1022.1 1021.9 0.0
30/12:00pm 16.5 14.6 6.8 52 4.9 WNW 6 13 3 7 1022.7 1022.6 0.0
30/11:30am 14.8 12.7 6.0 55 4.3 S 6 9 3 5 1023.4 1023.3 0.0
30/11:00am 13.1 11.0 5.8 61 3.5 SSW 6 9 3 5 1024.0 1023.8 0.0
30/10:30am 11.3 10.2 4.9 65 3.0 CALM 0 0 0 0 1024.4 1024.3 0.0
30/10:00am 10.7 9.6 5.1 68 2.6 CALM 0 6 0 3 1024.5 1024.4 0.0
30/09:30am 9.7 8.4 4.2 68 2.5 CALM 0 0 0 0 1024.8 1024.7 0.0
30/09:00am 7.0 5.6 3.8 80 1.4 CALM 0 0 0 0 1024.8 1024.7 0.0
30/08:30am 3.5 1.9 2.5 93 0.4 CALM 0 0 0 0 1024.8 1024.7 0.0
30/08:00am 1.1 -0.8 0.3 94 0.3 CALM 0 0 0 0 1024.7 1024.6 0.0
30/07:30am 0.1 - - - - CALM 0 0 0 0 1024.3 1024.2 0.0
30/07:00am -0.6 - - - - CALM 0 0 0 0 1024.1 1024.0 0.0
30/06:30am -1.0 - - - - CALM 0 0 0 0 1023.8 1023.7 0.0
30/06:00am 0.3 - - - - CALM 0 0 0 0 1023.6 1023.5 0.0
30/05:30am 0.9 -1.0 0.6 98 0.1 CALM 0 0 0 0 1023.5 1023.4 0.0
30/05:00am 0.4 -1.6 0.1 98 0.1 CALM 0 0 0 0 1023.5 1023.4 0.0
30/04:30am 0.4 -1.5 0.4 100 0.0 CALM 0 0 0 0 1023.6 1023.5 0.0
30/04:00am 1.8 0.0 1.3 96 0.2 CALM 0 0 0 0 1023.7 1023.6 0.0
30/03:30am 2.0 0.2 1.5 96 0.2 CALM 0 0 0 0 1023.8 1023.7 0.0
30/03:00am 2.3 0.6 2.0 98 0.1 CALM 0 0 0 0 1023.8 1023.7 0.0
30/02:30am 2.3 0.6 1.8 96 0.2 CALM 0 0 0 0 1024.2 1024.1 0.0
30/02:00am 1.4 -0.4 0.9 96 0.2 CALM 0 0 0 0 1024.5 1024.4 0.0
30/01:30am 3.9 1.0 2.7 92 0.5 NE 7 9 4 5 1024.7 1024.6 0.0
30/01:00am 3.5 0.2 2.5 93 0.4 NE 9 11 5 6 1025.1 1025.0 0.0
30/12:30am 4.2 1.4 3.0 92 0.5 ENE 7 9 4 5 1025.3 1025.2 0.0
30/12:00am 4.6 3.1 3.2 91 0.6 CALM 0 0 0 0 1025.4 1025.3 0.0
 
Date/Time
EST
Temp
°C
App
Temp
°C
Dew
Point
°C
Rel
Hum
%
Delta-T
°C
Wind Press
QNH
hPa
Press
MSL
hPa
Rain since
9am
mm
Dir  Spd
km/h
Gust
km/h
Spd
kts
Gust
kts
29/11:30pm 6.2 3.5 2.9 79 1.4 NE 6 7 3 4 1025.5 1025.4 0.0
29/11:00pm 4.0 1.5 3.8 99 0.1 ENE 6 7 3 4 1025.6 1025.5 0.0
29/10:30pm 5.1 3.8 3.9 92 0.5 CALM 0 0 0 0 1025.7 1025.6 0.0
29/10:00pm 5.9 2.9 4.3 89 0.7 ENE 9 11 5 6 1025.6 1025.5 0.0
29/09:30pm 7.8 5.2 4.2 78 1.6 NNE 7 9 4 5 1025.6 1025.5 0.0
29/09:00pm 7.5 4.2 4.4 81 1.4 NNE 11 13 6 7 1025.6 1025.5 0.0
29/08:30pm 6.6 5.4 4.8 88 0.8 CALM 0 0 0 0 1025.7 1025.6 0.0
29/08:00pm 6.8 5.7 5.0 88 0.8 CALM 0 0 0 0 1025.7 1025.6 0.0

Latest Capital City Observations: Canberra | Sydney | Melbourne | Brisbane | Adelaide | Perth | Hobart | Darwin

Other Formats:

Comma delimited format used in spreadsheet applications
http://www.bom.gov.au/fwo/IDQ60901/IDQ60901.94555.axf

JavaScript Object Notation format (JSON) in row-major order
http://www.bom.gov.au/fwo/IDQ60901/IDQ60901.94555.json